sensor_id;sensor_type;location;lat;lon;timestamp;pressure;altitude;pressure_sealevel;temperature;humidity
52185;BME280;38160;52.876;18.778;2023-03-01T12:22:08;101914.42;;;5.61;87.31
52185;BME280;38160;52.876;18.778;2023-03-01T12:28:20;101911.17;;;5.65;86.79
52185;BME280;38160;52.876;18.778;2023-03-01T12:31:15;101907.45;;;5.73;86.36
52185;BME280;38160;52.876;18.778;2023-03-01T12:34:09;101907.61;;;5.81;86.19
52185;BME280;38160;52.876;18.778;2023-03-01T12:40:36;101906.72;;;6.62;87.89
52185;BME280;38160;52.876;18.778;2023-03-01T12:43:32;101907.45;;;6.83;87.54
52185;BME280;38160;52.876;18.778;2023-03-01T12:46:20;101903.45;;;7.04;87.18
52185;BME280;38160;52.876;18.778;2023-03-01T12:49:08;101904.42;;;7.17;88.60
52185;BME280;38160;52.876;18.778;2023-03-01T12:51:54;101898.91;;;7.36;86.22
52185;BME280;38160;52.876;18.778;2023-03-01T12:54:33;101898.55;;;7.32;85.30
52185;BME280;38160;52.876;18.778;2023-03-01T12:57:17;101896.48;;;7.21;84.21
52185;BME280;38160;52.876;18.778;2023-03-01T13:00:05;101886.71;;;7.02;84.03
52185;BME280;38160;52.876;18.778;2023-03-01T13:02:49;101883.78;;;6.93;84.25
52185;BME280;38160;52.876;18.778;2023-03-01T13:05:39;101883.77;;;6.93;84.28
52185;BME280;38160;52.876;18.778;2023-03-01T13:08:22;101883.79;;;6.98;84.78
52185;BME280;38160;52.876;18.778;2023-03-01T13:11:28;101883.05;;;7.11;84.36
52185;BME280;38160;52.876;18.778;2023-03-01T13:14:36;101881.91;;;7.24;85.20
52185;BME280;38160;52.876;18.778;2023-03-01T13:17:39;101881.59;;;7.29;84.06
52185;BME280;38160;52.876;18.778;2023-03-01T13:20:19;101884.17;;;7.22;83.73
52185;BME280;38160;52.876;18.778;2023-03-01T13:23:13;101883.39;;;7.21;84.10
52185;BME280;38160;52.876;18.778;2023-03-01T13:26:14;101877.11;;;7.21;83.83
52185;BME280;38160;52.876;18.778;2023-03-01T13:28:58;101875.23;;;7.23;83.49
52185;BME280;38160;52.876;18.778;2023-03-01T13:31:57;101876.42;;;7.23;83.54
52185;BME280;38160;52.876;18.778;2023-03-01T13:34:56;101873.16;;;7.21;83.58
52185;BME280;38160;52.876;18.778;2023-03-01T13:37:38;101868.70;;;7.21;83.79
52185;BME280;38160;52.876;18.778;2023-03-01T13:43:31;101863.27;;;7.17;83.04
52185;BME280;38160;52.876;18.778;2023-03-01T13:46:14;101860.39;;;7.12;83.46
52185;BME280;38160;52.876;18.778;2023-03-01T13:48:53;101851.30;;;7.09;83.48
52185;BME280;38160;52.876;18.778;2023-03-01T13:51:31;101848.56;;;7.08;83.47
52185;BME280;38160;52.876;18.778;2023-03-01T13:54:12;101846.54;;;7.11;83.51
52185;BME280;38160;52.876;18.778;2023-03-01T13:56:50;101842.27;;;7.11;83.06
52185;BME280;38160;52.876;18.778;2023-03-01T13:59:26;101835.58;;;7.09;83.29
52185;BME280;38160;52.876;18.778;2023-03-01T14:02:13;101827.63;;;7.10;83.05
52185;BME280;38160;52.876;18.778;2023-03-01T14:04:59;101827.77;;;7.16;83.38
52185;BME280;38160;52.876;18.778;2023-03-01T14:07:36;101827.23;;;7.25;83.49
52185;BME280;38160;52.876;18.778;2023-03-01T14:10:16;101828.91;;;7.34;83.36
52185;BME280;38160;52.876;18.778;2023-03-01T14:12:57;101826.19;;;7.39;83.34
52185;BME280;38160;52.876;18.778;2023-03-01T14:15:42;101830.94;;;7.43;82.64
52185;BME280;38160;52.876;18.778;2023-03-01T14:18:26;101824.67;;;7.43;83.04
52185;BME280;38160;52.876;18.778;2023-03-01T14:21:12;101822.09;;;7.47;82.63
52185;BME280;38160;52.876;18.778;2023-03-01T14:23:49;101819.33;;;7.47;82.56
52185;BME280;38160;52.876;18.778;2023-03-01T14:26:26;101817.98;;;7.51;82.54
52185;BME280;38160;52.876;18.778;2023-03-01T14:29:02;101818.05;;;7.52;82.39
52185;BME280;38160;52.876;18.778;2023-03-01T14:31:40;101814.52;;;7.54;82.31
52185;BME280;38160;52.876;18.778;2023-03-01T14:34:21;101814.59;;;7.56;82.43
52185;BME280;38160;52.876;18.778;2023-03-01T14:36:57;101814.20;;;7.56;82.22
52185;BME280;38160;52.876;18.778;2023-03-01T14:39:45;101809.39;;;7.51;81.83
52185;BME280;38160;52.876;18.778;2023-03-01T14:42:23;101807.85;;;7.48;82.12
52185;BME280;38160;52.876;18.778;2023-03-01T14:45:03;101809.08;;;7.43;81.71
52185;BME280;38160;52.876;18.778;2023-03-01T14:47:43;101807.10;;;7.38;81.73
52185;BME280;38160;52.876;18.778;2023-03-01T14:50:24;101808.30;;;7.34;81.91
52185;BME280;38160;52.876;18.778;2023-03-01T14:53:02;101809.61;;;7.36;82.20
52185;BME280;38160;52.876;18.778;2023-03-01T14:55:43;101809.39;;;7.36;81.76
52185;BME280;38160;52.876;18.778;2023-03-01T14:58:22;101807.92;;;7.34;81.72
52185;BME280;38160;52.876;18.778;2023-03-01T15:01:01;101808.26;;;7.35;81.99
52185;BME280;38160;52.876;18.778;2023-03-01T15:03:40;101808.46;;;7.35;81.79
52185;BME280;38160;52.876;18.778;2023-03-01T15:06:20;101804.79;;;7.33;81.63
52185;BME280;38160;52.876;18.778;2023-03-01T15:08:57;101806.50;;;7.30;81.86
52185;BME280;38160;52.876;18.778;2023-03-01T15:11:35;101803.05;;;7.28;82.07
52185;BME280;38160;52.876;18.778;2023-03-01T15:14:38;101797.53;;;7.25;82.10
52185;BME280;38160;52.876;18.778;2023-03-01T15:17:26;101799.05;;;7.19;81.88
52185;BME280;38160;52.876;18.778;2023-03-01T15:20:13;101797.55;;;7.17;82.19
52185;BME280;38160;52.876;18.778;2023-03-01T15:22:52;101791.91;;;7.16;81.95
52185;BME280;38160;52.876;18.778;2023-03-01T15:25:30;101790.49;;;7.09;81.95
52185;BME280;38160;52.876;18.778;2023-03-01T15:28:17;101790.80;;;7.05;82.00
52185;BME280;38160;52.876;18.778;2023-03-01T15:30:57;101792.50;;;6.99;82.02
52185;BME280;38160;52.876;18.778;2023-03-01T15:33:37;101788.77;;;6.91;81.88
52185;BME280;38160;52.876;18.778;2023-03-01T15:36:32;101791.57;;;6.79;81.97
52185;BME280;38160;52.876;18.778;2023-03-01T15:39:27;101793.14;;;6.68;82.08
52185;BME280;38160;52.876;18.778;2023-03-01T15:42:07;101797.60;;;6.63;82.30
52185;BME280;38160;52.876;18.778;2023-03-01T15:44:44;101798.05;;;6.59;82.27
52185;BME280;38160;52.876;18.778;2023-03-01T15:47:31;101795.58;;;6.49;82.26
52185;BME280;38160;52.876;18.778;2023-03-01T15:50:17;101794.36;;;6.36;82.26
52185;BME280;38160;52.876;18.778;2023-03-01T15:52:55;101794.57;;;6.20;82.33
52185;BME280;38160;52.876;18.778;2023-03-01T15:55:32;101796.95;;;6.06;82.52
52185;BME280;38160;52.876;18.778;2023-03-01T15:58:13;101793.20;;;5.93;82.65
52185;BME280;38160;52.876;18.778;2023-03-01T16:00:51;101789.77;;;5.81;82.76
52185;BME280;38160;52.876;18.778;2023-03-01T16:03:30;101791.41;;;5.64;82.87
52185;BME280;38160;52.876;18.778;2023-03-01T16:06:07;101792.64;;;5.49;83.08
52185;BME280;38160;52.876;18.778;2023-03-01T16:08:44;101788.69;;;5.36;83.04
52185;BME280;38160;52.876;18.778;2023-03-01T16:11:20;101785.19;;;5.24;83.05
52185;BME280;38160;52.876;18.778;2023-03-01T16:13:57;101784.69;;;5.12;82.85
52185;BME280;38160;52.876;18.778;2023-03-01T16:16:33;101781.89;;;5.01;83.06
52185;BME280;38160;52.876;18.778;2023-03-01T16:19:10;101784.84;;;4.88;83.03
52185;BME280;38160;52.876;18.778;2023-03-01T16:21:46;101784.35;;;4.71;83.11
52185;BME280;38160;52.876;18.778;2023-03-01T16:24:25;101792.52;;;4.55;83.22
52185;BME280;38160;52.876;18.778;2023-03-01T16:27:01;101787.84;;;4.36;82.96
52185;BME280;38160;52.876;18.778;2023-03-01T16:29:37;101783.59;;;4.18;83.24
52185;BME280;38160;52.876;18.778;2023-03-01T16:32:13;101781.09;;;4.03;83.60
52185;BME280;38160;52.876;18.778;2023-03-01T16:34:49;101778.95;;;3.86;83.74
52185;BME280;38160;52.876;18.778;2023-03-01T16:37:25;101779.14;;;3.71;84.00
52185;BME280;38160;52.876;18.778;2023-03-01T16:40:01;101778.83;;;3.61;84.29
52185;BME280;38160;52.876;18.778;2023-03-01T16:42:38;101780.16;;;3.54;84.42
52185;BME280;38160;52.876;18.778;2023-03-01T16:45:15;101779.02;;;3.46;85.30
52185;BME280;38160;52.876;18.778;2023-03-01T16:47:51;101776.73;;;3.40;85.11
52185;BME280;38160;52.876;18.778;2023-03-01T16:50:27;101779.44;;;3.33;85.42
52185;BME280;38160;52.876;18.778;2023-03-01T16:53:03;101776.92;;;3.27;85.34
52185;BME280;38160;52.876;18.778;2023-03-01T16:55:39;101776.11;;;3.20;85.30
52185;BME280;38160;52.876;18.778;2023-03-01T16:58:19;101778.80;;;3.10;85.38
52185;BME280;38160;52.876;18.778;2023-03-01T17:00:56;101785.53;;;3.01;85.54
52185;BME280;38160;52.876;18.778;2023-03-01T17:03:32;101780.26;;;2.97;85.85
52185;BME280;38160;52.876;18.778;2023-03-01T17:06:10;101780.79;;;2.91;86.04
52185;BME280;38160;52.876;18.778;2023-03-01T17:08:47;101784.73;;;2.84;85.80
52185;BME280;38160;52.876;18.778;2023-03-01T17:11:23;101786.04;;;2.76;85.61
52185;BME280;38160;52.876;18.778;2023-03-01T17:13:59;101790.90;;;2.68;86.16
52185;BME280;38160;52.876;18.778;2023-03-01T17:16:35;101791.43;;;2.62;86.05
52185;BME280;38160;52.876;18.778;2023-03-01T17:19:11;101790.01;;;2.56;86.23
52185;BME280;38160;52.876;18.778;2023-03-01T17:21:52;101785.70;;;2.53;86.41
52185;BME280;38160;52.876;18.778;2023-03-01T17:24:28;101785.44;;;2.48;86.65
52185;BME280;38160;52.876;18.778;2023-03-01T17:27:05;101784.84;;;2.43;87.12
52185;BME280;38160;52.876;18.778;2023-03-01T17:29:41;101788.32;;;2.38;87.04
52185;BME280;38160;52.876;18.778;2023-03-01T17:32:17;101797.54;;;2.35;86.89
52185;BME280;38160;52.876;18.778;2023-03-01T17:34:53;101801.01;;;2.33;86.78
52185;BME280;38160;52.876;18.778;2023-03-01T17:37:29;101802.53;;;2.28;86.77
52185;BME280;38160;52.876;18.778;2023-03-01T17:40:06;101804.63;;;2.22;86.91
52185;BME280;38160;52.876;18.778;2023-03-01T17:42:42;101807.02;;;2.17;86.98
52185;BME280;38160;52.876;18.778;2023-03-01T17:45:19;101807.97;;;2.13;87.34
52185;BME280;38160;52.876;18.778;2023-03-01T17:47:55;101808.16;;;2.09;87.12
52185;BME280;38160;52.876;18.778;2023-03-01T17:50:31;101812.98;;;2.05;87.20
52185;BME280;38160;52.876;18.778;2023-03-01T17:53:07;101808.79;;;2.00;87.43
52185;BME280;38160;52.876;18.778;2023-03-01T17:55:44;101807.35;;;1.97;87.47
52185;BME280;38160;52.876;18.778;2023-03-01T17:58:23;101807.23;;;1.93;87.48
52185;BME280;38160;52.876;18.778;2023-03-01T18:01:07;101807.76;;;1.90;87.48
52185;BME280;38160;52.876;18.778;2023-03-01T18:03:44;101812.29;;;1.84;87.65
52185;BME280;38160;52.876;18.778;2023-03-01T18:06:22;101812.66;;;1.77;87.67
52185;BME280;38160;52.876;18.778;2023-03-01T18:08:59;101812.95;;;1.71;87.73
52185;BME280;38160;52.876;18.778;2023-03-01T18:11:35;101809.83;;;1.67;87.76
52185;BME280;38160;52.876;18.778;2023-03-01T18:14:11;101808.88;;;1.60;87.62
52185;BME280;38160;52.876;18.778;2023-03-01T18:16:47;101811.80;;;1.55;87.78
52185;BME280;38160;52.876;18.778;2023-03-01T18:19:23;101811.38;;;1.54;88.00
52185;BME280;38160;52.876;18.778;2023-03-01T18:21:59;101811.54;;;1.54;88.23
52185;BME280;38160;52.876;18.778;2023-03-01T18:24:36;101814.23;;;1.53;87.98
52185;BME280;38160;52.876;18.778;2023-03-01T18:27:12;101812.09;;;1.50;87.95
52185;BME280;38160;52.876;18.778;2023-03-01T18:29:48;101817.03;;;1.47;88.37
52185;BME280;38160;52.876;18.778;2023-03-01T18:32:24;101815.80;;;1.47;88.41
52185;BME280;38160;52.876;18.778;2023-03-01T18:35:01;101817.33;;;1.48;88.44
52185;BME280;38160;52.876;18.778;2023-03-01T18:37:37;101819.62;;;1.48;88.65
52185;BME280;38160;52.876;18.778;2023-03-01T18:40:13;101818.49;;;1.46;88.48
52185;BME280;38160;52.876;18.778;2023-03-01T18:42:49;101814.34;;;1.43;88.46
52185;BME280;38160;52.876;18.778;2023-03-01T18:45:25;101816.52;;;1.42;88.37
52185;BME280;38160;52.876;18.778;2023-03-01T18:48:01;101813.90;;;1.41;88.39
52185;BME280;38160;52.876;18.778;2023-03-01T18:50:37;101816.92;;;1.42;88.56
52185;BME280;38160;52.876;18.778;2023-03-01T18:53:13;101819.77;;;1.41;88.79
52185;BME280;38160;52.876;18.778;2023-03-01T18:55:50;101817.95;;;1.38;88.68
52185;BME280;38160;52.876;18.778;2023-03-01T18:58:26;101817.75;;;1.28;88.56
52185;BME280;38160;52.876;18.778;2023-03-01T19:01:02;101813.52;;;1.24;88.79
52185;BME280;38160;52.876;18.778;2023-03-01T19:03:41;101813.43;;;1.23;88.64
52185;BME280;38160;52.876;18.778;2023-03-01T19:06:17;101809.21;;;1.18;88.50
52185;BME280;38160;52.876;18.778;2023-03-01T19:08:55;101811.15;;;1.15;88.75
52185;BME280;38160;52.876;18.778;2023-03-01T19:11:31;101809.47;;;1.09;89.04
52185;BME280;38160;52.876;18.778;2023-03-01T19:14:10;101817.38;;;1.07;88.90
52185;BME280;38160;52.876;18.778;2023-03-01T19:16:46;101823.31;;;0.98;88.75
52185;BME280;38160;52.876;18.778;2023-03-01T19:19:24;101818.88;;;0.91;88.86
52185;BME280;38160;52.876;18.778;2023-03-01T19:22:01;101818.73;;;0.86;88.93
52185;BME280;38160;52.876;18.778;2023-03-01T19:24:37;101822.67;;;0.85;89.07
52185;BME280;38160;52.876;18.778;2023-03-01T19:27:13;101824.73;;;0.83;88.70
52185;BME280;38160;52.876;18.778;2023-03-01T19:29:49;101826.14;;;0.79;88.67
52185;BME280;38160;52.876;18.778;2023-03-01T19:32:25;101829.13;;;0.73;88.31
52185;BME280;38160;52.876;18.778;2023-03-01T19:35:01;101833.97;;;0.68;88.77
52185;BME280;38160;52.876;18.778;2023-03-01T19:37:37;101834.30;;;0.68;89.19
52185;BME280;38160;52.876;18.778;2023-03-01T19:40:13;101833.48;;;0.66;89.54
52185;BME280;38160;52.876;18.778;2023-03-01T19:42:49;101840.27;;;0.65;89.92
52185;BME280;38160;52.876;18.778;2023-03-01T19:45:25;101841.08;;;0.63;89.62
52185;BME280;38160;52.876;18.778;2023-03-01T19:48:02;101845.19;;;0.58;89.70
52185;BME280;38160;52.876;18.778;2023-03-01T19:50:38;101845.49;;;0.55;90.09
52185;BME280;38160;52.876;18.778;2023-03-01T19:53:18;101841.48;;;0.54;90.36
52185;BME280;38160;52.876;18.778;2023-03-01T19:55:59;101842.84;;;0.51;90.25
52185;BME280;38160;52.876;18.778;2023-03-01T19:58:35;101843.34;;;0.48;90.15
52185;BME280;38160;52.876;18.778;2023-03-01T20:01:17;101838.70;;;0.45;90.01
52185;BME280;38160;52.876;18.778;2023-03-01T20:03:54;101835.13;;;0.42;89.88
52185;BME280;38160;52.876;18.778;2023-03-01T20:06:30;101837.98;;;0.37;90.25
52185;BME280;38160;52.876;18.778;2023-03-01T20:09:07;101838.43;;;0.35;90.04
52185;BME280;38160;52.876;18.778;2023-03-01T20:11:43;101837.35;;;0.32;90.01
52185;BME280;38160;52.876;18.778;2023-03-01T20:14:20;101840.42;;;0.30;90.05
52185;BME280;38160;52.876;18.778;2023-03-01T20:16:56;101839.16;;;0.27;90.00
52185;BME280;38160;52.876;18.778;2023-03-01T20:19:32;101846.45;;;0.22;89.64
52185;BME280;38160;52.876;18.778;2023-03-01T20:22:08;101844.85;;;0.18;89.76
52185;BME280;38160;52.876;18.778;2023-03-01T20:24:44;101847.30;;;0.15;89.76
52185;BME280;38160;52.876;18.778;2023-03-01T20:27:20;101851.33;;;0.12;89.91
52185;BME280;38160;52.876;18.778;2023-03-01T20:29:56;101849.84;;;0.06;89.90
52185;BME280;38160;52.876;18.778;2023-03-01T20:32:32;101848.89;;;0.03;90.19
52185;BME280;38160;52.876;18.778;2023-03-01T20:35:10;101846.71;;;0.01;90.37
52185;BME280;38160;52.876;18.778;2023-03-01T20:37:46;101849.40;;;-0.00;90.44
52185;BME280;38160;52.876;18.778;2023-03-01T20:40:22;101850.31;;;-0.05;90.63
52185;BME280;38160;52.876;18.778;2023-03-01T20:43:01;101852.88;;;-0.07;90.43
52185;BME280;38160;52.876;18.778;2023-03-01T20:45:39;101850.23;;;-0.11;90.37
52185;BME280;38160;52.876;18.778;2023-03-01T20:48:15;101852.09;;;-0.14;90.41
52185;BME280;38160;52.876;18.778;2023-03-01T20:53:31;101846.71;;;-0.24;89.85
52185;BME280;38160;52.876;18.778;2023-03-01T20:56:10;101846.61;;;-0.27;90.07
52185;BME280;38160;52.876;18.778;2023-03-01T20:58:46;101847.91;;;-0.28;90.43
52185;BME280;38160;52.876;18.778;2023-03-01T21:01:22;101844.79;;;-0.30;90.31
52185;BME280;38160;52.876;18.778;2023-03-01T21:03:59;101843.33;;;-0.32;90.21
52185;BME280;38160;52.876;18.778;2023-03-01T21:06:35;101845.77;;;-0.35;90.04
52185;BME280;38160;52.876;18.778;2023-03-01T21:09:13;101843.73;;;-0.38;90.31
52185;BME280;38160;52.876;18.778;2023-03-01T21:11:50;101843.66;;;-0.40;90.72
52185;BME280;38160;52.876;18.778;2023-03-01T21:14:26;101848.84;;;-0.42;90.56
52185;BME280;38160;52.876;18.778;2023-03-01T21:17:03;101845.33;;;-0.42;90.84
52185;BME280;38160;52.876;18.778;2023-03-01T21:19:40;101845.60;;;-0.44;90.78
52185;BME280;38160;52.876;18.778;2023-03-01T21:22:18;101848.35;;;-0.43;91.41
52185;BME280;38160;52.876;18.778;2023-03-01T21:24:54;101850.34;;;-0.39;91.34
52185;BME280;38160;52.876;18.778;2023-03-01T21:27:30;101852.48;;;-0.40;91.04
52185;BME280;38160;52.876;18.778;2023-03-01T21:30:14;101852.91;;;-0.41;91.13
52185;BME280;38160;52.876;18.778;2023-03-01T21:32:50;101852.71;;;-0.46;90.55
52185;BME280;38160;52.876;18.778;2023-03-01T21:35:26;101848.33;;;-0.51;90.65
52185;BME280;38160;52.876;18.778;2023-03-01T21:38:03;101850.52;;;-0.52;90.78
52185;BME280;38160;52.876;18.778;2023-03-01T21:40:39;101845.03;;;-0.52;90.97
52185;BME280;38160;52.876;18.778;2023-03-01T21:43:15;101845.33;;;-0.55;90.82
52185;BME280;38160;52.876;18.778;2023-03-01T21:45:51;101846.86;;;-0.57;90.82
52185;BME280;38160;52.876;18.778;2023-03-01T21:48:27;101847.80;;;-0.59;90.83
52185;BME280;38160;52.876;18.778;2023-03-01T21:51:04;101848.63;;;-0.62;90.85
52185;BME280;38160;52.876;18.778;2023-03-01T21:53:40;101849.19;;;-0.63;90.84
52185;BME280;38160;52.876;18.778;2023-03-01T21:56:18;101853.66;;;-0.64;90.99
52185;BME280;38160;52.876;18.778;2023-03-01T21:58:55;101854.61;;;-0.66;91.09
52185;BME280;38160;52.876;18.778;2023-03-01T22:01:31;101852.08;;;-0.69;91.04
52185;BME280;38160;52.876;18.778;2023-03-01T22:04:08;101849.67;;;-0.71;91.32
52185;BME280;38160;52.876;18.778;2023-03-01T22:06:47;101849.75;;;-0.73;91.48
52185;BME280;38160;52.876;18.778;2023-03-01T22:09:23;101850.09;;;-0.76;91.29
52185;BME280;38160;52.876;18.778;2023-03-01T22:11:59;101842.17;;;-0.81;91.47
52185;BME280;38160;52.876;18.778;2023-03-01T22:14:35;101847.16;;;-0.82;91.92
52185;BME280;38160;52.876;18.778;2023-03-01T22:17:11;101848.08;;;-0.79;92.45
52185;BME280;38160;52.876;18.778;2023-03-01T22:19:47;101846.42;;;-0.78;92.23
52185;BME280;38160;52.876;18.778;2023-03-01T22:22:23;101850.67;;;-0.78;92.34
52185;BME280;38160;52.876;18.778;2023-03-01T22:24:59;101846.42;;;-0.77;92.61
52185;BME280;38160;52.876;18.778;2023-03-01T22:27:36;101844.16;;;-0.74;92.86
52185;BME280;38160;52.876;18.778;2023-03-01T22:30:30;101842.27;;;-0.71;93.11
52185;BME280;38160;52.876;18.778;2023-03-01T22:33:06;101849.70;;;-0.71;93.51
52185;BME280;38160;52.876;18.778;2023-03-01T22:35:43;101852.56;;;-0.68;93.40
52185;BME280;38160;52.876;18.778;2023-03-01T22:38:19;101850.91;;;-0.66;93.09
52185;BME280;38160;52.876;18.778;2023-03-01T22:41:00;101850.48;;;-0.64;93.16
52185;BME280;38160;52.876;18.778;2023-03-01T22:43:36;101841.30;;;-0.65;93.08
52185;BME280;38160;52.876;18.778;2023-03-01T22:46:23;101842.96;;;-0.62;93.25
52185;BME280;38160;52.876;18.778;2023-03-01T22:49:20;101839.30;;;-0.64;93.24
52185;BME280;38160;52.876;18.778;2023-03-01T22:51:56;101836.32;;;-0.64;93.25
52185;BME280;38160;52.876;18.778;2023-03-01T22:54:32;101837.09;;;-0.66;93.11
52185;BME280;38160;52.876;18.778;2023-03-01T22:57:08;101835.10;;;-0.69;92.98
52185;BME280;38160;52.876;18.778;2023-03-01T22:59:44;101838.13;;;-0.69;92.99
52185;BME280;38160;52.876;18.778;2023-03-01T23:02:20;101833.88;;;-0.69;93.25
52185;BME280;38160;52.876;18.778;2023-03-01T23:04:57;101835.95;;;-0.72;92.99
52185;BME280;38160;52.876;18.778;2023-03-01T23:07:33;101839.89;;;-0.73;93.20
52185;BME280;38160;52.876;18.778;2023-03-01T23:10:11;101837.83;;;-0.74;93.19
52185;BME280;38160;52.876;18.778;2023-03-01T23:12:47;101833.23;;;-0.75;93.50
52185;BME280;38160;52.876;18.778;2023-03-01T23:15:23;101829.26;;;-0.77;93.39
52185;BME280;38160;52.876;18.778;2023-03-01T23:18:01;101827.70;;;-0.82;93.10
52185;BME280;38160;52.876;18.778;2023-03-01T23:20:38;101833.16;;;-0.86;93.21
52185;BME280;38160;52.876;18.778;2023-03-01T23:23:14;101833.05;;;-0.87;93.48
52185;BME280;38160;52.876;18.778;2023-03-01T23:25:55;101833.80;;;-0.85;93.63
52185;BME280;38160;52.876;18.778;2023-03-01T23:28:32;101831.27;;;-0.83;93.53
52185;BME280;38160;52.876;18.778;2023-03-01T23:31:10;101832.83;;;-0.82;93.73
52185;BME280;38160;52.876;18.778;2023-03-01T23:33:47;101835.98;;;-0.82;93.81
52185;BME280;38160;52.876;18.778;2023-03-01T23:36:25;101834.19;;;-0.81;93.65
52185;BME280;38160;52.876;18.778;2023-03-01T23:39:04;101834.71;;;-0.81;93.39
52185;BME280;38160;52.876;18.778;2023-03-01T23:41:41;101835.85;;;-0.82;93.41
52185;BME280;38160;52.876;18.778;2023-03-01T23:44:19;101835.92;;;-0.84;93.40
52185;BME280;38160;52.876;18.778;2023-03-01T23:46:56;101841.17;;;-0.83;93.62
52185;BME280;38160;52.876;18.778;2023-03-01T23:49:32;101840.36;;;-0.85;94.38
52185;BME280;38160;52.876;18.778;2023-03-01T23:52:08;101846.56;;;-0.85;95.05
52185;BME280;38160;52.876;18.778;2023-03-01T23:54:46;101845.10;;;-0.88;95.47
52185;BME280;38160;52.876;18.778;2023-03-01T23:57:22;101842.52;;;-0.90;95.54
52185;BME280;38160;52.876;18.778;2023-03-01T23:59:58;101845.67;;;-0.90;95.21
